createdAt,value
2018-05-12T00:00:08.399Z,14.90
2018-05-12T00:02:35.461Z,15.00
2018-05-12T00:05:02.475Z,14.90
2018-05-12T00:07:30.395Z,14.80
2018-05-12T00:09:57.452Z,14.80
2018-05-12T00:12:24.468Z,14.80
2018-05-12T00:14:52.283Z,14.80
2018-05-12T00:17:19.967Z,14.80
2018-05-12T00:19:48.090Z,14.70
2018-05-12T00:22:15.097Z,14.70
2018-05-12T00:24:42.106Z,14.70
2018-05-12T00:27:09.164Z,14.70
2018-05-12T00:29:37.445Z,14.70
2018-05-12T00:32:04.436Z,14.70
2018-05-12T00:34:31.440Z,14.60
2018-05-12T00:36:58.452Z,14.60
2018-05-12T00:39:25.467Z,14.60
2018-05-12T00:41:52.465Z,14.60
2018-05-12T00:44:19.649Z,14.50
2018-05-12T00:46:46.703Z,14.40
2018-05-12T00:49:13.738Z,14.50
2018-05-12T00:51:41.481Z,14.40
2018-05-12T00:54:08.520Z,14.40
2018-05-12T00:56:35.552Z,14.50
2018-05-12T00:59:02.519Z,14.50
2018-05-12T01:01:29.549Z,14.40
2018-05-12T01:03:56.568Z,14.40
2018-05-12T01:06:23.588Z,14.40
2018-05-12T01:08:51.351Z,14.40
2018-05-12T01:11:19.092Z,14.40
2018-05-12T01:13:46.123Z,14.30
2018-05-12T01:16:13.132Z,14.30
2018-05-12T01:18:40.860Z,14.30
2018-05-12T01:21:07.868Z,14.30
2018-05-12T01:23:35.633Z,14.20
2018-05-12T01:26:02.721Z,14.30
2018-05-12T01:28:30.455Z,14.30
2018-05-12T01:30:57.465Z,14.20
2018-05-12T01:33:24.465Z,14.30
2018-05-12T01:35:51.476Z,14.20
2018-05-12T01:38:18.757Z,14.20
2018-05-12T01:40:45.754Z,14.20
2018-05-12T01:43:13.155Z,14.20
2018-05-12T01:45:40.216Z,14.20
2018-05-12T01:48:07.217Z,14.20
2018-05-12T01:50:34.241Z,14.20
2018-05-12T01:53:01.985Z,14.10
2018-05-12T01:55:29.745Z,14.20
2018-05-12T01:57:57.521Z,14.10
2018-05-12T02:00:25.291Z,14.20
2018-05-12T02:02:52.340Z,14.10
2018-05-12T02:05:20.100Z,14.10
2018-05-12T02:07:47.124Z,14.10
2018-05-12T02:10:14.141Z,14.10
2018-05-12T02:12:41.156Z,14.00
2018-05-12T02:15:08.268Z,14.00
2018-05-12T02:17:36.039Z,13.90
2018-05-12T02:20:04.316Z,13.90
2018-05-12T02:22:32.067Z,13.90
2018-05-12T02:24:59.124Z,13.90
2018-05-12T02:27:26.884Z,13.90
2018-05-12T02:29:53.875Z,13.90
2018-05-12T02:32:20.918Z,13.90
2018-05-12T02:34:47.971Z,13.90
2018-05-12T02:37:14.963Z,13.90
2018-05-12T02:39:41.999Z,13.90
2018-05-12T02:42:09.006Z,13.90
2018-05-12T02:44:36.016Z,13.90
2018-05-12T02:47:03.767Z,14.00
2018-05-12T02:49:30.787Z,14.00
2018-05-12T02:51:57.810Z,14.00
2018-05-12T02:54:24.795Z,14.00
2018-05-12T02:56:51.809Z,14.00
2018-05-12T02:59:18.805Z,14.00
2018-05-12T03:01:45.824Z,14.00
2018-05-12T03:04:12.864Z,14.00
2018-05-12T03:06:39.907Z,14.00
2018-05-12T03:09:06.889Z,14.00
2018-05-12T03:11:33.886Z,14.00
2018-05-12T03:14:00.925Z,14.00
2018-05-12T03:16:27.951Z,14.00
2018-05-12T03:18:55.735Z,13.90
2018-05-12T03:21:22.751Z,13.90
2018-05-12T03:23:49.780Z,13.90
2018-05-12T03:26:17.074Z,13.90
2018-05-12T03:28:44.202Z,13.80
2018-05-12T03:31:11.446Z,13.90
2018-05-12T03:33:38.456Z,13.80
2018-05-12T03:36:06.209Z,13.80
2018-05-12T03:38:33.219Z,13.80
2018-05-12T03:41:01.134Z,13.70
2018-05-12T03:43:28.239Z,13.70
2018-05-12T03:45:55.992Z,13.60
2018-05-12T03:48:22.995Z,13.70
2018-05-12T03:50:50.016Z,13.60
2018-05-12T03:53:17.051Z,13.70
2018-05-12T03:55:44.834Z,13.70
2018-05-12T03:58:11.827Z,13.70
2018-05-12T04:00:38.869Z,13.70
2018-05-12T04:03:05.931Z,13.70
2018-05-12T04:05:51.504Z,13.70
2018-05-12T04:08:38.151Z,13.70
2018-05-12T04:11:23.464Z,13.70
2018-05-12T04:13:50.524Z,13.70
2018-05-12T04:16:17.546Z,13.70
2018-05-12T04:18:44.559Z,13.70
2018-05-12T04:21:12.344Z,13.80
2018-05-12T04:23:39.333Z,13.70
2018-05-12T04:26:06.400Z,13.80
2018-05-12T04:28:34.135Z,13.80
2018-05-12T04:31:01.181Z,13.80
2018-05-12T04:33:28.164Z,13.90
2018-05-12T04:35:56.117Z,13.90
2018-05-12T04:38:23.120Z,13.90
2018-05-12T04:40:50.115Z,14.00
2018-05-12T04:43:17.952Z,14.10
2018-05-12T04:45:44.927Z,14.10
2018-05-12T04:48:11.951Z,14.20
2018-05-12T04:50:39.052Z,14.20
2018-05-12T04:53:07.993Z,14.20
2018-05-12T04:55:35.085Z,14.30
2018-05-12T04:58:02.082Z,14.40
2018-05-12T05:00:29.096Z,14.50
2018-05-12T05:02:57.938Z,14.60
2018-05-12T05:05:24.982Z,14.60
2018-05-12T05:07:51.981Z,14.70
2018-05-12T05:10:19.084Z,14.80
2018-05-12T05:12:46.847Z,15.00
2018-05-12T05:15:13.897Z,14.90
2018-05-12T05:17:41.121Z,15.00
2018-05-12T05:20:08.228Z,15.10
2018-05-12T05:22:35.244Z,15.20
2018-05-12T05:25:03.089Z,15.30
2018-05-12T05:27:30.120Z,15.30
2018-05-12T05:29:57.491Z,15.30
2018-05-12T05:32:24.558Z,15.40
2018-05-12T05:34:51.601Z,15.40
2018-05-12T05:37:18.879Z,15.50
2018-05-12T05:39:46.765Z,15.60
2018-05-12T05:42:14.972Z,15.60
2018-05-12T05:44:42.011Z,15.60
2018-05-12T05:47:09.292Z,15.80
2018-05-12T05:49:36.304Z,15.80
2018-05-12T05:52:03.316Z,15.80
2018-05-12T05:54:31.111Z,15.90
2018-05-12T05:56:58.191Z,15.90
2018-05-12T05:59:25.181Z,16.00
2018-05-12T06:01:53.186Z,16.10
2018-05-12T06:04:20.988Z,16.10
2018-05-12T06:06:48.188Z,16.10
2018-05-12T06:09:15.101Z,16.10
2018-05-12T06:11:42.243Z,16.20
2018-05-12T06:14:10.219Z,16.30
2018-05-12T06:16:37.302Z,16.30
2018-05-12T06:19:04.360Z,16.40
2018-05-12T06:21:31.396Z,16.40
2018-05-12T06:23:58.387Z,16.50
2018-05-12T06:26:25.405Z,16.50
2018-05-12T06:28:52.433Z,16.50
2018-05-12T06:31:19.427Z,16.60
2018-05-12T06:33:46.445Z,16.60
2018-05-12T06:36:13.445Z,16.60
2018-05-12T06:38:40.468Z,16.70
2018-05-12T06:41:07.487Z,16.80
2018-05-12T06:43:34.483Z,16.80
2018-05-12T06:46:01.507Z,16.90
2018-05-12T06:48:28.503Z,16.90
2018-05-12T06:50:55.535Z,17.00
2018-05-12T06:53:22.552Z,17.10
2018-05-12T06:55:49.567Z,17.10
2018-05-12T06:58:17.336Z,17.30
2018-05-12T07:00:44.340Z,17.20
2018-05-12T07:03:11.336Z,17.30
2018-05-12T07:05:38.365Z,17.40
2018-05-12T07:08:05.367Z,17.50
2018-05-12T07:10:33.145Z,17.60
2018-05-12T07:13:00.160Z,17.60
2018-05-12T07:15:27.175Z,17.70
2018-05-12T07:17:54.193Z,17.70
2018-05-12T07:20:21.186Z,17.80
2018-05-12T07:22:48.210Z,17.90
2018-05-12T07:25:15.351Z,17.90
2018-05-12T07:27:42.346Z,18.00
2018-05-12T07:30:09.352Z,18.00
2018-05-12T07:32:36.331Z,18.00
2018-05-12T07:35:03.327Z,18.10
2018-05-12T07:37:30.340Z,18.20
2018-05-12T07:39:58.084Z,18.30
2018-05-12T07:42:25.092Z,18.30
2018-05-12T07:44:52.091Z,18.50
2018-05-12T07:47:19.065Z,18.50
2018-05-12T07:49:46.076Z,18.60
2018-05-12T07:52:13.081Z,18.70
2018-05-12T07:54:40.443Z,18.80
2018-05-12T07:57:07.544Z,18.90
2018-05-12T07:59:35.275Z,18.90
2018-05-12T08:02:02.319Z,18.90
2018-05-12T08:04:29.711Z,19.00
2018-05-12T08:06:56.956Z,19.10
2018-05-12T08:09:23.991Z,19.10
2018-05-12T08:11:50.980Z,19.20
2018-05-12T08:14:18.022Z,19.30
2018-05-12T08:16:45.012Z,19.30
2018-05-12T08:19:12.064Z,19.40
2018-05-12T08:21:39.035Z,19.50
2018-05-12T08:24:06.020Z,19.50
2018-05-12T08:26:33.060Z,19.60
2018-05-12T08:29:00.077Z,19.70
2018-05-12T08:31:27.861Z,19.80
2018-05-12T08:33:55.626Z,19.90
2018-05-12T08:36:22.672Z,19.90
2018-05-12T08:38:49.699Z,20.00
2018-05-12T08:41:17.439Z,20.10
2018-05-12T08:43:44.448Z,20.00
2018-05-12T08:46:11.437Z,20.10
2018-05-12T08:48:38.468Z,20.10
2018-05-12T08:51:05.496Z,20.20
2018-05-12T08:53:32.520Z,20.30
2018-05-12T08:55:59.552Z,20.30
2018-05-12T08:58:27.300Z,20.40
2018-05-12T09:00:55.052Z,20.50
2018-05-12T09:03:22.031Z,20.40
2018-05-12T09:05:49.767Z,20.60
2018-05-12T09:08:16.790Z,20.60
2018-05-12T09:10:43.799Z,20.70
2018-05-12T09:13:11.544Z,20.80
2018-05-12T09:15:38.589Z,20.80
2018-05-12T09:18:06.344Z,20.90
2018-05-12T09:20:34.124Z,20.90
2018-05-12T09:23:02.348Z,21.00
2018-05-12T09:25:29.441Z,20.90
2018-05-12T09:27:56.369Z,21.10
2018-05-12T09:30:23.432Z,21.10
2018-05-12T09:32:50.450Z,21.10
2018-05-12T09:35:17.466Z,21.20
2018-05-12T09:37:44.491Z,21.30
2018-05-12T09:40:11.496Z,21.40
2018-05-12T09:42:38.554Z,21.40
2018-05-12T09:45:05.581Z,21.40
2018-05-12T09:47:33.359Z,21.60
2018-05-12T09:50:01.285Z,21.70
2018-05-12T09:52:29.132Z,21.80
2018-05-12T09:54:56.067Z,21.80
2018-05-12T09:57:23.081Z,21.90
2018-05-12T09:59:50.084Z,22.10
2018-05-12T10:02:17.088Z,22.20
2018-05-12T10:04:44.095Z,22.40
2018-05-12T10:07:11.089Z,22.50
2018-05-12T10:09:38.916Z,22.60
2018-05-12T10:12:06.583Z,22.70
2018-05-12T10:14:33.640Z,22.70
2018-05-12T10:17:00.644Z,22.80
2018-05-12T10:19:27.721Z,22.90
2018-05-12T10:21:54.698Z,22.90
2018-05-12T10:24:22.479Z,22.90
2018-05-12T10:26:50.235Z,22.90
2018-05-12T10:29:17.977Z,23.00
2018-05-12T10:31:45.016Z,23.00
2018-05-12T10:34:12.097Z,23.20
2018-05-12T10:36:39.106Z,23.30
2018-05-12T10:39:06.164Z,23.40
2018-05-12T10:41:33.176Z,23.60
2018-05-12T10:44:00.241Z,23.80
2018-05-12T10:46:27.280Z,24.00
2018-05-12T10:48:54.281Z,24.10
2018-05-12T10:51:21.309Z,24.10
2018-05-12T10:53:49.088Z,24.30
2018-05-12T10:56:16.101Z,24.30
2018-05-12T10:58:43.096Z,24.30
2018-05-12T11:01:10.119Z,24.40
2018-05-12T11:03:37.864Z,24.40
2018-05-12T11:06:04.889Z,24.40
2018-05-12T11:08:31.924Z,24.60
2018-05-12T11:10:58.944Z,24.80
2018-05-12T11:13:25.996Z,24.80
2018-05-12T11:15:53.080Z,24.80
2018-05-12T11:18:20.068Z,25.00
2018-05-12T11:20:47.062Z,25.00
2018-05-12T11:23:14.075Z,25.00
2018-05-12T11:25:41.148Z,25.10
2018-05-12T11:28:08.148Z,25.30
2018-05-12T11:30:35.176Z,25.60
2018-05-12T11:33:02.209Z,25.70
2018-05-12T11:35:29.229Z,25.80
2018-05-12T11:37:56.316Z,26.00
2018-05-12T11:40:23.341Z,26.00
2018-05-12T11:42:50.374Z,25.80
2018-05-12T11:45:17.380Z,25.70
2018-05-12T11:47:45.248Z,25.90
2018-05-12T11:50:13.023Z,26.10
2018-05-12T11:52:40.010Z,26.10
2018-05-12T11:55:07.084Z,26.30
2018-05-12T11:57:34.095Z,26.60
2018-05-12T12:00:01.141Z,26.80
2018-05-12T12:02:28.169Z,27.00
2018-05-12T12:04:55.181Z,27.10
2018-05-12T12:07:22.386Z,27.40
2018-05-12T12:09:49.437Z,27.60
2018-05-12T12:12:16.477Z,27.90
2018-05-12T12:14:44.348Z,28.30
2018-05-12T12:17:12.111Z,28.60
2018-05-12T12:19:39.122Z,28.60
2018-05-12T12:22:06.124Z,28.30
2018-05-12T12:24:33.168Z,27.80
2018-05-12T12:27:00.223Z,27.50
2018-05-12T12:29:27.225Z,27.30
2018-05-12T12:31:54.303Z,27.40
2018-05-12T12:34:21.307Z,27.90
2018-05-12T12:36:49.084Z,28.90
2018-05-12T12:39:16.084Z,28.90
2018-05-12T12:41:43.140Z,29.10
2018-05-12T12:44:10.185Z,29.40
2018-05-12T12:46:37.167Z,29.70
2018-05-12T12:49:04.195Z,30.10
2018-05-12T12:51:32.009Z,30.30
2018-05-12T12:53:59.733Z,29.90
2018-05-12T12:56:26.776Z,29.90
2018-05-12T12:58:53.744Z,29.30
2018-05-12T13:01:20.727Z,28.50
2018-05-12T13:03:47.707Z,28.10
2018-05-12T13:06:14.694Z,27.60
2018-05-12T13:08:41.757Z,27.30
2018-05-12T13:11:08.747Z,26.90
2018-05-12T13:13:35.757Z,27.00
2018-05-12T13:16:02.872Z,26.80
2018-05-12T13:18:29.884Z,26.60
2018-05-12T13:20:57.662Z,26.10
2018-05-12T13:23:24.669Z,26.10
2018-05-12T13:25:51.715Z,26.30
2018-05-12T13:28:18.744Z,26.40
2018-05-12T13:30:45.765Z,27.20
2018-05-12T13:33:13.521Z,28.90
2018-05-12T13:35:40.533Z,28.90
2018-05-12T13:38:07.556Z,29.60
2018-05-12T13:40:34.571Z,30.00
2018-05-12T13:43:01.592Z,29.60
2018-05-12T13:45:28.727Z,29.50
2018-05-12T13:47:56.193Z,29.70
2018-05-12T13:50:23.363Z,29.90
2018-05-12T13:52:51.124Z,30.40
2018-05-12T13:55:18.137Z,30.30
2018-05-12T13:57:45.144Z,30.30
2018-05-12T14:00:12.189Z,30.50
2018-05-12T14:02:39.258Z,30.80
2018-05-12T14:05:06.308Z,30.80
2018-05-12T14:07:33.310Z,30.30
2018-05-12T14:10:01.055Z,29.60
2018-05-12T14:12:28.066Z,29.60
2018-05-12T14:14:55.093Z,29.10
2018-05-12T14:17:22.845Z,29.00
2018-05-12T14:19:50.617Z,29.60
2018-05-12T14:22:17.641Z,29.50
2018-05-12T14:24:44.660Z,29.50
2018-05-12T14:27:11.676Z,29.80
2018-05-12T14:29:38.681Z,30.10
2018-05-12T14:32:05.687Z,30.60
2018-05-12T14:34:32.672Z,30.90
2018-05-12T14:37:00.588Z,29.50
2018-05-12T14:39:27.589Z,29.50
2018-05-12T14:41:55.331Z,28.40
2018-05-12T14:44:22.373Z,28.40
2018-05-12T14:46:49.338Z,28.20
2018-05-12T14:49:16.377Z,27.90
2018-05-12T14:51:43.386Z,27.90
2018-05-12T14:54:10.400Z,28.00
2018-05-12T14:56:38.166Z,27.90
2018-05-12T14:59:05.192Z,27.90
2018-05-12T15:01:32.248Z,27.50
2018-05-12T15:03:59.228Z,27.20
2018-05-12T15:06:26.265Z,27.00
2018-05-12T15:08:53.283Z,26.50
2018-05-12T15:11:21.035Z,26.20
2018-05-12T15:13:48.047Z,26.10
2018-05-12T15:16:15.056Z,26.10
2018-05-12T15:18:42.083Z,26.00
2018-05-12T15:21:09.851Z,25.80
2018-05-12T15:23:37.593Z,25.60
2018-05-12T15:26:04.773Z,25.60
2018-05-12T15:28:32.540Z,25.80
2018-05-12T15:31:00.309Z,25.80
2018-05-12T15:33:27.307Z,25.90
2018-05-12T15:35:54.329Z,26.10
2018-05-12T15:38:21.370Z,26.30
2018-05-12T15:40:48.376Z,26.30
2018-05-12T15:43:16.181Z,26.00
2018-05-12T15:45:43.201Z,26.00
2018-05-12T15:48:10.937Z,25.80
2018-05-12T15:50:37.949Z,25.80
2018-05-12T15:53:04.976Z,25.90
2018-05-12T15:55:32.007Z,25.80
2018-05-12T15:57:59.756Z,25.50
2018-05-12T16:00:27.505Z,25.50
2018-05-12T16:02:54.521Z,25.40
2018-05-12T16:05:21.531Z,25.30
2018-05-12T16:07:49.279Z,24.90
2018-05-12T16:10:16.272Z,24.90
2018-05-12T16:12:43.272Z,24.80
2018-05-12T16:15:10.289Z,24.80
2018-05-12T16:17:37.308Z,24.80
2018-05-12T16:20:04.438Z,24.80
2018-05-12T16:22:32.175Z,24.70
2018-05-12T16:24:59.192Z,24.60
2018-05-12T16:27:26.251Z,24.60
2018-05-12T16:29:53.253Z,24.70
2018-05-12T16:32:20.301Z,24.60
2018-05-12T16:34:48.037Z,24.70
2018-05-12T16:37:15.026Z,24.70
2018-05-12T16:39:42.043Z,24.70
2018-05-12T16:42:09.780Z,24.60
2018-05-12T16:44:37.643Z,24.40
2018-05-12T16:47:05.313Z,24.20
2018-05-12T16:49:32.341Z,24.20
2018-05-12T16:51:59.347Z,24.10
2018-05-12T16:54:27.085Z,24.00
2018-05-12T16:56:54.836Z,24.00
2018-05-12T16:59:21.839Z,24.00
2018-05-12T17:01:48.872Z,23.90
2018-05-12T17:04:16.587Z,23.90
2018-05-12T17:06:43.586Z,23.80
2018-05-12T17:09:10.611Z,23.70
2018-05-12T17:11:37.617Z,23.70
2018-05-12T17:14:04.696Z,23.70
2018-05-12T17:16:32.447Z,23.60
2018-05-12T17:18:59.456Z,23.50
2018-05-12T17:21:26.476Z,23.60
2018-05-12T17:23:53.468Z,23.60
2018-05-12T17:26:20.716Z,23.50
2018-05-12T17:28:47.738Z,23.50
2018-05-12T17:31:14.751Z,23.50
2018-05-12T17:33:41.772Z,23.40
2018-05-12T17:36:08.784Z,23.20
2018-05-12T17:38:35.846Z,23.10
2018-05-12T17:41:02.846Z,22.90
2018-05-12T17:43:29.861Z,22.80
2018-05-12T17:45:56.912Z,22.60
2018-05-12T17:48:24.684Z,22.30
2018-05-12T17:50:51.696Z,22.20
2018-05-12T17:53:18.736Z,22.20
2018-05-12T17:55:45.777Z,22.00
2018-05-12T17:58:12.816Z,21.90
2018-05-12T18:00:39.848Z,21.70
2018-05-12T18:03:06.940Z,21.60
2018-05-12T18:05:33.943Z,21.50
2018-05-12T18:08:00.965Z,21.40
2018-05-12T18:10:28.723Z,21.30
2018-05-12T18:12:55.771Z,21.30
2018-05-12T18:15:23.572Z,21.10
2018-05-12T18:17:50.580Z,21.10
2018-05-12T18:20:18.352Z,20.80
2018-05-12T18:22:45.357Z,20.80
2018-05-12T18:25:12.352Z,20.60
2018-05-12T18:27:39.420Z,20.50
2018-05-12T18:30:06.447Z,20.30
2018-05-12T18:32:33.484Z,20.20
2018-05-12T18:35:01.317Z,20.10
2018-05-12T18:37:28.321Z,20.10
2018-05-12T18:39:55.372Z,20.00
2018-05-12T18:42:22.433Z,20.00
2018-05-12T18:44:49.453Z,19.90
2018-05-12T18:47:16.591Z,19.80
2018-05-12T18:49:43.665Z,19.70
2018-05-12T18:52:11.655Z,19.70
2018-05-12T18:54:38.671Z,19.70
2018-05-12T18:57:05.763Z,19.60
2018-05-12T18:59:32.772Z,19.50
2018-05-12T19:01:59.772Z,19.40
2018-05-12T19:04:26.784Z,19.30
2018-05-12T19:06:53.800Z,19.20
2018-05-12T19:09:21.613Z,19.00
2018-05-12T19:11:50.921Z,18.80
2018-05-12T19:14:17.947Z,18.80
2018-05-12T19:16:45.721Z,18.70
2018-05-12T19:19:12.723Z,18.60
2018-05-12T19:21:39.749Z,18.50
2018-05-12T19:24:07.551Z,18.30
2018-05-12T19:26:34.580Z,18.30
2018-05-12T19:29:01.657Z,18.30
2018-05-12T19:31:28.694Z,18.20
2018-05-12T19:33:55.732Z,18.20
2018-05-12T19:36:22.807Z,18.10
2018-05-12T19:38:49.811Z,18.10
2018-05-12T19:41:17.555Z,18.00
2018-05-12T19:43:44.607Z,17.90
2018-05-12T19:46:11.628Z,17.90
2018-05-12T19:48:38.627Z,17.90
2018-05-12T19:51:05.655Z,17.90
2018-05-12T19:53:34.408Z,17.80
2018-05-12T19:56:01.458Z,17.80
2018-05-12T19:58:28.448Z,17.80
2018-05-12T20:00:56.192Z,17.70
2018-05-12T20:03:24.017Z,17.60
2018-05-12T20:05:51.020Z,17.60
2018-05-12T20:08:18.771Z,17.50
2018-05-12T20:10:46.539Z,17.50
2018-05-12T20:13:13.592Z,17.40
2018-05-12T20:15:41.390Z,17.50
2018-05-12T20:18:08.400Z,17.50
2018-05-12T20:20:35.406Z,17.50
2018-05-12T20:23:02.417Z,17.50
2018-05-12T20:25:30.155Z,17.40
2018-05-12T20:27:57.916Z,17.40
2018-05-12T20:30:24.931Z,17.30
2018-05-12T20:32:51.933Z,17.30
2018-05-12T20:35:19.671Z,17.30
2018-05-12T20:37:47.456Z,17.30
2018-05-12T20:40:14.488Z,17.30
2018-05-12T20:42:41.488Z,17.30
2018-05-12T20:45:08.509Z,17.30
2018-05-12T20:47:36.245Z,17.30
2018-05-12T20:50:03.303Z,17.30
2018-05-12T20:52:30.348Z,17.20
2018-05-12T20:54:57.471Z,17.20
2018-05-12T20:57:24.576Z,17.30
2018-05-12T20:59:51.593Z,17.30
2018-05-12T21:02:19.359Z,17.30
2018-05-12T21:04:46.418Z,17.30
2018-05-12T21:07:14.265Z,17.20
2018-05-12T21:09:42.065Z,17.20
2018-05-12T21:12:09.072Z,17.20
2018-05-12T21:14:36.263Z,17.30
2018-05-12T21:17:03.292Z,17.20
2018-05-12T21:19:30.302Z,17.20
2018-05-12T21:21:57.314Z,17.20
2018-05-12T21:24:24.333Z,17.20
2018-05-12T21:26:52.084Z,17.10
2018-05-12T21:29:19.118Z,17.10
2018-05-12T21:31:46.156Z,17.10
2018-05-12T21:34:13.927Z,17.00
2018-05-12T21:36:40.925Z,17.00
2018-05-12T21:39:07.960Z,17.00
2018-05-12T21:41:35.243Z,17.00
2018-05-12T21:44:02.328Z,16.90
2018-05-12T21:46:29.316Z,16.80
2018-05-12T21:48:57.208Z,16.80
2018-05-12T21:51:24.267Z,16.80
2018-05-12T21:53:52.019Z,16.90
2018-05-12T21:56:19.029Z,16.90
2018-05-12T21:58:46.051Z,16.90
2018-05-12T22:01:14.275Z,16.90
2018-05-12T22:03:41.290Z,16.90
2018-05-12T22:06:08.288Z,16.90
2018-05-12T22:08:35.305Z,16.90
2018-05-12T22:11:02.300Z,16.90
2018-05-12T22:13:30.061Z,16.90
2018-05-12T22:15:57.829Z,16.80
2018-05-12T22:18:25.652Z,16.80
2018-05-12T22:20:52.660Z,16.80
2018-05-12T22:23:19.644Z,16.80
2018-05-12T22:25:46.672Z,16.80
2018-05-12T22:28:13.684Z,16.70
2018-05-12T22:30:41.797Z,16.70
2018-05-12T22:33:08.819Z,16.70
2018-05-12T22:35:36.593Z,16.60
2018-05-12T22:38:03.624Z,16.60
2018-05-12T22:40:31.405Z,16.50
2018-05-12T22:42:58.448Z,16.50
2018-05-12T22:45:25.472Z,16.40
2018-05-12T22:47:53.228Z,16.40
2018-05-12T22:50:20.203Z,16.40
2018-05-12T22:52:47.236Z,16.40
2018-05-12T22:55:14.245Z,16.30
2018-05-12T22:57:42.004Z,16.30
2018-05-12T23:00:09.083Z,16.30
2018-05-12T23:02:36.105Z,16.30
2018-05-12T23:05:03.156Z,16.30
2018-05-12T23:07:30.141Z,16.30
2018-05-12T23:09:57.915Z,16.20
2018-05-12T23:12:25.656Z,16.10
2018-05-12T23:14:53.716Z,16.10
2018-05-12T23:17:20.699Z,16.00
2018-05-12T23:19:47.735Z,16.10
2018-05-12T23:22:15.477Z,16.10
2018-05-12T23:24:42.505Z,16.00
2018-05-12T23:27:09.517Z,16.00
2018-05-12T23:29:36.516Z,16.10
2018-05-12T23:32:03.556Z,16.00
2018-05-12T23:34:30.580Z,16.00
2018-05-12T23:36:57.601Z,16.00
2018-05-12T23:39:24.574Z,16.00
2018-05-12T23:41:51.628Z,16.00
2018-05-12T23:44:18.654Z,16.00
2018-05-12T23:46:45.773Z,15.90
2018-05-12T23:49:12.797Z,15.90
2018-05-12T23:51:39.836Z,15.80
2018-05-12T23:54:07.668Z,15.80
2018-05-12T23:56:34.675Z,15.80
2018-05-12T23:59:02.412Z,15.70
